createdAt,value
2018-09-23T00:00:39.835Z,79.59
2018-09-23T00:01:39.790Z,81.62
2018-09-23T00:02:39.777Z,82.12
2018-09-23T00:03:39.783Z,82.64
2018-09-23T00:04:39.757Z,82.98
2018-09-23T00:05:39.747Z,83.48
2018-09-23T00:06:39.767Z,80.54
2018-09-23T00:07:39.726Z,82.84
2018-09-23T00:08:39.724Z,83.99
2018-09-23T00:09:39.700Z,83.04
2018-09-23T00:10:39.701Z,82.17
2018-09-23T00:11:39.686Z,82.03
2018-09-23T00:12:39.693Z,80.50
2018-09-23T00:13:39.680Z,82.64
2018-09-23T00:14:39.648Z,82.53
2018-09-23T00:15:39.634Z,80.60
2018-09-23T00:16:39.624Z,79.90
2018-09-23T00:17:39.613Z,81.18
2018-09-23T00:18:39.627Z,78.94
2018-09-23T00:19:39.609Z,80.46
2018-09-23T00:20:39.581Z,78.74
2018-09-23T00:21:39.570Z,78.70
2018-09-23T00:22:39.564Z,77.28
2018-09-23T00:23:39.548Z,78.30
2018-09-23T00:24:39.582Z,78.19
2018-09-23T00:25:39.530Z,77.14
2018-09-23T00:26:39.517Z,78.97
2018-09-23T00:27:39.505Z,77.55
2018-09-23T00:28:39.497Z,78.97
2018-09-23T00:29:39.501Z,77.86
2018-09-23T00:30:39.504Z,77.86
2018-09-23T00:31:39.463Z,78.26
2018-09-23T00:32:39.451Z,79.07
2018-09-23T00:33:39.445Z,78.56
2018-09-23T00:34:39.449Z,78.56
2018-09-23T00:35:39.424Z,78.46
2018-09-23T00:36:39.435Z,78.26
2018-09-23T00:37:39.398Z,77.65
2018-09-23T00:38:39.397Z,76.90
2018-09-23T00:39:39.394Z,77.01
2018-09-23T00:40:39.372Z,77.41
2018-09-23T00:41:39.400Z,77.51
2018-09-23T00:42:39.384Z,77.72
2018-09-23T00:43:39.336Z,76.90
2018-09-23T00:44:39.340Z,77.92
2018-09-23T00:45:39.313Z,77.92
2018-09-23T00:46:39.308Z,78.73
2018-09-23T00:47:39.295Z,78.77
2018-09-23T00:48:39.304Z,77.34
2018-09-23T00:49:39.300Z,79.03
2018-09-23T00:50:39.262Z,78.73
2018-09-23T00:51:39.259Z,81.06
2018-09-23T00:52:39.242Z,80.45
2018-09-23T00:53:39.234Z,82.31
2018-09-23T00:54:39.245Z,80.90
2018-09-23T00:55:39.222Z,81.40
2018-09-23T00:56:39.197Z,80.39
2018-09-23T00:57:39.187Z,79.98
2018-09-23T00:58:39.175Z,79.07
2018-09-23T00:59:39.164Z,81.60
2018-09-23T01:00:39.198Z,79.44
2018-09-23T01:01:39.147Z,79.24
2018-09-23T01:02:39.132Z,78.73
2018-09-23T01:03:39.120Z,77.07
2018-09-23T01:04:39.110Z,74.81
2018-09-23T01:05:39.120Z,75.62
2018-09-23T01:06:39.097Z,74.57
2018-09-23T01:07:39.099Z,74.16
2018-09-23T01:08:39.071Z,72.81
2018-09-23T01:09:39.061Z,71.47
2018-09-23T01:10:39.070Z,71.13
2018-09-23T01:11:39.041Z,71.03
2018-09-23T01:12:39.029Z,69.82
2018-09-23T01:13:39.037Z,68.67
2018-09-23T01:14:39.009Z,67.93
2018-09-23T01:15:38.996Z,67.80
2018-09-23T01:16:38.999Z,67.50
2018-09-23T01:17:39.003Z,65.92
2018-09-23T01:18:38.966Z,66.29
2018-09-23T01:19:38.954Z,66.05
2018-09-23T01:20:38.968Z,64.54
2018-09-23T01:21:38.944Z,65.35
2018-09-23T01:22:38.920Z,65.45
2018-09-23T01:23:38.909Z,63.53
2018-09-23T01:24:38.895Z,62.29
2018-09-23T01:25:38.891Z,61.96
2018-09-23T01:26:38.922Z,61.86
2018-09-23T01:27:38.865Z,65.29
2018-09-23T01:28:38.861Z,68.04
2018-09-23T01:29:38.839Z,70.39
2018-09-23T01:30:38.832Z,72.04
2018-09-23T01:31:38.839Z,72.51
2018-09-23T01:32:38.843Z,74.87
2018-09-23T01:33:38.811Z,75.31
2018-09-23T01:34:38.783Z,75.92
2018-09-23T01:35:38.778Z,76.76
2018-09-23T01:36:38.779Z,76.59
2018-09-23T01:37:38.752Z,75.14
2018-09-23T01:38:38.775Z,74.87
2018-09-23T01:39:38.738Z,74.74
2018-09-23T01:40:38.720Z,74.43
2018-09-23T01:41:38.725Z,75.55
2018-09-23T01:42:38.698Z,73.79
2018-09-23T01:43:38.689Z,73.90
2018-09-23T01:44:38.721Z,74.50
2018-09-23T01:45:38.666Z,73.90
2018-09-23T01:46:38.668Z,73.90
2018-09-23T01:47:38.647Z,73.90
2018-09-23T01:48:38.634Z,72.44
2018-09-23T01:49:38.626Z,74.26
2018-09-23T01:50:38.651Z,72.64
2018-09-23T01:51:38.619Z,72.44
2018-09-23T01:52:38.592Z,72.64
2018-09-23T01:53:38.577Z,71.73
2018-09-23T01:54:38.569Z,72.14
2018-09-23T01:55:38.563Z,68.77
2018-09-23T01:56:38.593Z,69.65
2018-09-23T01:57:38.550Z,69.55
2018-09-23T01:58:38.525Z,69.55
2018-09-23T01:59:38.517Z,69.15
2018-09-23T02:00:38.503Z,69.31
2018-09-23T02:01:38.495Z,69.24
2018-09-23T02:02:38.534Z,68.30
2018-09-23T02:03:38.472Z,68.21
2018-09-23T02:04:38.463Z,66.89
2018-09-23T02:05:38.452Z,65.65
2018-09-23T02:06:38.445Z,64.11
2018-09-23T02:07:38.443Z,63.30
2018-09-23T02:08:38.446Z,63.00
2018-09-23T02:09:38.426Z,63.57
2018-09-23T02:10:38.398Z,63.07
2018-09-23T02:11:38.386Z,62.77
2018-09-23T02:12:38.403Z,62.06
2018-09-23T02:13:38.365Z,61.83
2018-09-23T02:14:38.382Z,61.73
2018-09-23T02:15:38.346Z,61.46
2018-09-23T02:16:38.334Z,61.73
2018-09-23T02:17:38.339Z,62.46
2018-09-23T02:18:38.321Z,62.06
2018-09-23T02:19:38.307Z,59.82
2018-09-23T02:20:38.285Z,60.22
2018-09-23T02:21:38.307Z,60.09
2018-09-23T02:22:38.280Z,59.59
2018-09-23T02:23:38.254Z,59.79
2018-09-23T02:24:38.279Z,59.06
2018-09-23T02:25:38.234Z,58.86
2018-09-23T02:26:38.219Z,59.26
2018-09-23T02:27:38.277Z,59.76
2018-09-23T02:28:38.201Z,58.25
2018-09-23T02:29:38.198Z,58.05
2018-09-23T02:30:38.182Z,59.46
2018-09-23T02:31:38.186Z,58.55
2018-09-23T02:32:38.171Z,58.93
2018-09-23T02:33:38.153Z,59.76
2018-09-23T02:34:38.161Z,59.36
2018-09-23T02:35:38.135Z,59.76
2018-09-23T02:36:38.120Z,59.76
2018-09-23T02:37:38.178Z,58.55
2018-09-23T02:38:38.097Z,59.56
2018-09-23T02:39:38.084Z,59.06
2018-09-23T02:40:38.078Z,60.16
2018-09-23T02:41:38.065Z,58.95
2018-09-23T02:42:38.089Z,60.16
2018-09-23T02:43:38.064Z,58.05
2018-09-23T02:44:38.031Z,60.57
2018-09-23T02:45:38.074Z,59.56
2018-09-23T02:46:38.013Z,60.67
2018-09-23T02:47:38.013Z,59.76
2018-09-23T02:48:38.023Z,61.27
2018-09-23T02:49:38.006Z,60.97
2018-09-23T02:50:37.969Z,61.30
2018-09-23T02:51:38.037Z,60.47
2018-09-23T02:52:37.944Z,60.06
2018-09-23T02:53:37.955Z,59.36
2018-09-23T02:54:37.931Z,59.86
2018-09-23T02:55:37.953Z,59.46
2018-09-23T02:56:37.904Z,60.53
2018-09-23T02:57:37.901Z,58.95
2018-09-23T02:58:37.899Z,59.43
2018-09-23T02:59:37.877Z,59.03
2018-09-23T03:00:37.862Z,59.26
2018-09-23T03:01:37.893Z,59.33
2018-09-23T03:02:37.840Z,60.84
2018-09-23T03:03:37.847Z,59.86
2018-09-23T03:04:37.823Z,59.36
2018-09-23T03:05:37.814Z,59.76
2018-09-23T03:06:37.801Z,59.86
2018-09-23T03:07:37.852Z,61.17
2018-09-23T03:08:37.792Z,59.96
2018-09-23T03:09:37.774Z,61.07
2018-09-23T03:10:37.761Z,60.06
2018-09-23T03:11:37.749Z,59.66
2018-09-23T03:12:37.740Z,60.36
2018-09-23T03:13:37.770Z,61.37
2018-09-23T03:14:37.718Z,61.47
2018-09-23T03:15:37.705Z,62.41
2018-09-23T03:16:37.694Z,61.10
2018-09-23T03:17:37.681Z,62.01
2018-09-23T03:18:37.697Z,63.11
2018-09-23T03:19:37.685Z,62.30
2018-09-23T03:20:37.650Z,62.41
2018-09-23T03:21:37.637Z,62.64
2018-09-23T03:22:37.628Z,63.51
2018-09-23T03:23:37.615Z,62.30
2018-09-23T03:24:37.628Z,62.41
2018-09-23T03:25:37.619Z,62.71
2018-09-23T03:26:37.585Z,62.71
2018-09-23T03:27:37.574Z,62.91
2018-09-23T03:28:37.564Z,63.71
2018-09-23T03:29:37.565Z,63.65
2018-09-23T03:30:37.552Z,64.15
2018-09-23T03:31:37.571Z,63.65
2018-09-23T03:32:37.521Z,63.54
2018-09-23T03:33:37.529Z,63.34
2018-09-23T03:34:37.512Z,63.45
2018-09-23T03:35:37.489Z,65.26
2018-09-23T03:36:37.480Z,63.45
2018-09-23T03:37:37.497Z,63.75
2018-09-23T03:38:37.463Z,63.95
2018-09-23T03:39:37.467Z,64.35
2018-09-23T03:40:37.437Z,63.98
2018-09-23T03:41:37.431Z,65.06
2018-09-23T03:42:37.422Z,63.95
2018-09-23T03:43:37.433Z,64.28
2018-09-23T03:44:37.408Z,63.85
2018-09-23T03:45:37.383Z,65.69
2018-09-23T03:46:37.372Z,64.18
2018-09-23T03:47:37.361Z,65.29
2018-09-23T03:48:37.352Z,63.98
2018-09-23T03:49:37.383Z,66.39
2018-09-23T03:50:37.332Z,64.18
2018-09-23T03:51:37.322Z,64.25
2018-09-23T03:52:37.306Z,64.07
2018-09-23T03:53:37.316Z,63.75
2018-09-23T03:54:37.306Z,65.36
2018-09-23T03:55:37.330Z,64.25
2018-09-23T03:56:37.270Z,64.05
2018-09-23T03:57:37.253Z,65.16
2018-09-23T03:58:37.246Z,65.66
2018-09-23T03:59:37.246Z,65.29
2018-09-23T04:00:37.223Z,65.29
2018-09-23T04:01:37.239Z,64.28
2018-09-23T04:02:37.204Z,65.36
2018-09-23T04:03:37.191Z,65.76
2018-09-23T04:04:37.198Z,66.16
2018-09-23T04:05:37.174Z,65.56
2018-09-23T04:06:37.158Z,65.26
2018-09-23T04:07:37.186Z,66.06
2018-09-23T04:08:37.137Z,65.66
2018-09-23T04:09:37.142Z,67.68
2018-09-23T04:10:37.115Z,65.96
2018-09-23T04:11:37.104Z,65.36
2018-09-23T04:12:37.094Z,65.96
2018-09-23T04:13:37.152Z,66.23
2018-09-23T04:14:37.086Z,66.06
2018-09-23T04:15:37.063Z,65.66
2018-09-23T04:16:37.050Z,67.77
2018-09-23T04:17:37.042Z,67.07
2018-09-23T04:18:37.029Z,67.77
2018-09-23T04:19:37.072Z,67.47
2018-09-23T04:20:37.006Z,67.68
2018-09-23T04:21:36.997Z,67.77
2018-09-23T04:22:36.987Z,67.88
2018-09-23T04:23:36.975Z,68.28
2018-09-23T04:24:36.979Z,67.27
2018-09-23T04:25:37.011Z,67.68
2018-09-23T04:26:36.940Z,67.77
2018-09-23T04:27:36.932Z,68.28
2018-09-23T04:28:36.923Z,69.21
2018-09-23T04:29:36.929Z,69.21
2018-09-23T04:30:36.897Z,69.92
2018-09-23T04:31:37.000Z,69.42
2018-09-23T04:32:36.879Z,69.21
2018-09-23T04:33:36.869Z,69.42
2018-09-23T04:34:36.874Z,69.92
2018-09-23T04:35:36.849Z,69.42
2018-09-23T04:36:36.838Z,69.32
2018-09-23T04:37:36.916Z,69.72
2018-09-23T04:38:36.830Z,70.42
2018-09-23T04:39:36.816Z,69.42
2018-09-23T04:40:36.799Z,68.61
2018-09-23T04:41:36.780Z,69.92
2018-09-23T04:42:36.773Z,70.22
2018-09-23T04:43:36.790Z,69.72
2018-09-23T04:44:36.764Z,69.52
2018-09-23T04:45:36.735Z,69.52
2018-09-23T04:46:36.724Z,70.32
2018-09-23T04:47:36.714Z,69.52
2018-09-23T04:48:36.702Z,70.53
2018-09-23T04:49:36.732Z,71.03
2018-09-23T04:50:36.679Z,71.33
2018-09-23T04:51:36.682Z,71.94
2018-09-23T04:52:36.660Z,71.03
2018-09-23T04:53:36.646Z,70.32
2018-09-23T04:54:36.696Z,70.32
2018-09-23T04:55:36.657Z,70.73
2018-09-23T04:56:36.617Z,69.92
2018-09-23T04:57:36.604Z,71.84
2018-09-23T04:58:36.591Z,69.62
2018-09-23T04:59:36.615Z,69.72
2018-09-23T05:00:36.568Z,70.39
2018-09-23T05:01:36.590Z,69.79
2018-09-23T05:02:36.545Z,69.49
2018-09-23T05:03:36.537Z,69.29
2018-09-23T05:04:36.527Z,69.15
2018-09-23T05:05:36.528Z,69.15
2018-09-23T05:06:36.501Z,68.44
2018-09-23T05:07:36.525Z,68.55
2018-09-23T05:08:36.572Z,68.65
2018-09-23T05:09:36.474Z,68.91
2018-09-23T05:10:36.510Z,68.11
2018-09-23T05:11:36.450Z,67.81
2018-09-23T05:12:36.443Z,68.82
2018-09-23T05:13:36.453Z,68.51
2018-09-23T05:14:36.415Z,68.31
2018-09-23T05:15:36.417Z,69.09
2018-09-23T05:16:36.392Z,69.22
2018-09-23T05:17:36.382Z,68.68
2018-09-23T05:18:36.371Z,68.08
2018-09-23T05:19:36.384Z,67.98
2018-09-23T05:20:36.361Z,68.28
2018-09-23T05:21:36.349Z,68.38
2018-09-23T05:22:36.326Z,68.78
2018-09-23T05:23:36.319Z,68.59
2018-09-23T05:24:36.304Z,68.48
2018-09-23T05:25:36.336Z,68.88
2018-09-23T05:26:36.281Z,68.68
2018-09-23T05:27:36.270Z,68.65
2018-09-23T05:28:36.283Z,68.85
2018-09-23T05:29:36.250Z,68.65
2018-09-23T05:30:36.268Z,68.65
2018-09-23T05:31:36.265Z,68.65
2018-09-23T05:32:36.216Z,68.95
2018-09-23T05:33:36.220Z,68.55
2018-09-23T05:34:36.195Z,69.06
2018-09-23T05:35:36.198Z,69.15
2018-09-23T05:36:36.211Z,68.65
2018-09-23T05:37:36.165Z,68.55
2018-09-23T05:38:36.152Z,68.55
2018-09-23T05:39:36.140Z,68.21
2018-09-23T05:40:36.143Z,68.95
2018-09-23T05:41:36.124Z,69.12
2018-09-23T05:42:36.137Z,69.12
2018-09-23T05:43:36.101Z,69.25
2018-09-23T05:44:36.087Z,69.12
2018-09-23T05:45:36.089Z,69.12
2018-09-23T05:46:36.070Z,69.12
2018-09-23T05:47:36.051Z,69.42
2018-09-23T05:48:36.073Z,68.82
2018-09-23T05:49:36.054Z,69.12
2018-09-23T05:50:36.039Z,69.32
2018-09-23T05:51:36.009Z,68.92
2018-09-23T05:52:36.000Z,68.92
2018-09-23T05:53:35.992Z,69.22
2018-09-23T05:54:36.019Z,69.42
2018-09-23T05:55:35.982Z,69.22
2018-09-23T05:56:35.956Z,69.32
2018-09-23T05:57:35.945Z,69.22
2018-09-23T05:58:35.935Z,69.82
2018-09-23T05:59:35.929Z,69.52
2018-09-23T06:00:35.955Z,69.22
2018-09-23T06:01:35.904Z,69.62
2018-09-23T06:02:35.892Z,70.03
2018-09-23T06:03:35.885Z,69.92
2018-09-23T06:04:35.878Z,69.12
2018-09-23T06:05:35.886Z,69.72
2018-09-23T06:06:35.867Z,70.03
2018-09-23T06:07:35.834Z,70.32
2018-09-23T06:08:35.827Z,71.03
2018-09-23T06:09:35.815Z,70.93
2018-09-23T06:10:35.806Z,73.84
2018-09-23T06:11:35.809Z,74.82
2018-09-23T06:12:35.898Z,75.32
2018-09-23T06:13:35.772Z,76.97
2018-09-23T06:14:35.759Z,75.05
2018-09-23T06:15:35.789Z,76.26
2018-09-23T06:16:35.757Z,75.15
2018-09-23T06:17:35.731Z,77.57
2018-09-23T06:18:35.807Z,77.87
2018-09-23T06:19:35.764Z,81.03
2018-09-23T06:20:35.695Z,81.37
2018-09-23T06:21:35.704Z,81.51
2018-09-23T06:22:35.678Z,83.22
2018-09-23T06:23:35.674Z,83.16
2018-09-23T06:24:35.658Z,83.26
2018-09-23T06:25:35.642Z,83.06
2018-09-23T06:26:35.690Z,83.97
2018-09-23T06:27:35.615Z,84.27
2018-09-23T06:28:35.619Z,83.40
2018-09-23T06:29:35.597Z,83.06
2018-09-23T06:30:35.593Z,83.60
2018-09-23T06:31:35.595Z,83.46
2018-09-23T06:32:35.590Z,83.66
2018-09-23T06:33:35.551Z,83.26
2018-09-23T06:34:35.544Z,83.06
2018-09-23T06:35:35.535Z,83.56
2018-09-23T06:36:35.528Z,84.27
2018-09-23T06:37:35.514Z,85.11
2018-09-23T06:38:35.520Z,85.31
2018-09-23T06:39:35.489Z,86.02
2018-09-23T06:40:35.475Z,86.43
2018-09-23T06:41:35.489Z,87.13
2018-09-23T06:42:35.448Z,87.54
2018-09-23T06:43:35.438Z,87.03
2018-09-23T06:44:35.459Z,87.68
2018-09-23T06:45:35.439Z,87.54
2018-09-23T06:46:35.409Z,87.84
2018-09-23T06:47:35.412Z,88.75
2018-09-23T06:48:35.387Z,88.75
2018-09-23T06:49:35.374Z,87.84
2018-09-23T06:50:35.392Z,86.53
2018-09-23T06:51:35.354Z,85.48
2018-09-23T06:52:35.353Z,85.58
2018-09-23T06:53:35.330Z,85.98
2018-09-23T06:54:35.319Z,85.58
2018-09-23T06:55:35.311Z,87.45
2018-09-23T06:56:35.334Z,84.43
2018-09-23T06:57:35.327Z,85.03
2018-09-23T06:58:35.276Z,85.10
2018-09-23T06:59:35.262Z,84.49
2018-09-23T07:00:35.280Z,84.19
2018-09-23T07:01:35.243Z,83.45
2018-09-23T07:02:35.243Z,83.45
2018-09-23T07:03:35.250Z,83.25
2018-09-23T07:04:35.259Z,81.93
2018-09-23T07:05:35.199Z,81.39
2018-09-23T07:06:35.183Z,79.94
2018-09-23T07:07:35.195Z,80.35
2018-09-23T07:08:35.164Z,80.45
2018-09-23T07:09:35.153Z,82.06
2018-09-23T07:10:35.222Z,80.75
2018-09-23T07:11:35.132Z,78.74
2018-09-23T07:12:35.136Z,79.21
2018-09-23T07:13:35.139Z,80.81
2018-09-23T07:14:35.101Z,81.32
2018-09-23T07:15:35.087Z,81.21
2018-09-23T07:16:35.169Z,79.41
2018-09-23T07:17:35.081Z,78.90
2018-09-23T07:18:35.065Z,79.37
2018-09-23T07:19:35.046Z,79.87
2018-09-23T07:20:35.032Z,78.30
2018-09-23T07:21:35.024Z,79.57
2018-09-23T07:22:35.025Z,79.77
2018-09-23T07:23:35.086Z,78.27
2018-09-23T07:24:34.997Z,77.36
2018-09-23T07:25:34.997Z,79.49
2018-09-23T07:26:34.978Z,76.54
2018-09-23T07:27:34.983Z,76.01
2018-09-23T07:28:34.950Z,73.77
2018-09-23T07:29:34.945Z,74.67
2018-09-23T07:30:34.966Z,75.87
2018-09-23T07:31:34.923Z,74.20
2018-09-23T07:32:34.956Z,74.90
2018-09-23T07:33:34.895Z,77.11
2018-09-23T07:34:34.887Z,75.31
2018-09-23T07:35:34.878Z,75.10
2018-09-23T07:36:34.923Z,76.61
2018-09-23T07:37:34.858Z,76.41
2018-09-23T07:38:34.865Z,76.04
2018-09-23T07:39:34.850Z,74.54
2018-09-23T07:40:34.857Z,75.84
2018-09-23T07:41:34.820Z,74.68
2018-09-23T07:42:34.801Z,76.48
2018-09-23T07:43:34.827Z,75.48
2018-09-23T07:44:34.775Z,76.15
2018-09-23T07:45:34.772Z,76.15
2018-09-23T07:46:34.770Z,74.34
2018-09-23T07:47:34.748Z,75.24
2018-09-23T07:48:34.783Z,74.34
2018-09-23T07:49:34.724Z,74.64
2018-09-23T07:50:34.706Z,74.84
2018-09-23T07:51:34.738Z,74.64
2018-09-23T07:52:34.722Z,76.11
2018-09-23T07:53:34.695Z,75.04
2018-09-23T07:54:34.672Z,76.34
2018-09-23T07:55:34.717Z,75.34
2018-09-23T07:56:34.715Z,75.24
2018-09-23T07:57:34.643Z,75.18
2018-09-23T07:58:34.720Z,75.38
2018-09-23T07:59:34.612Z,75.38
2018-09-23T08:00:34.601Z,75.48
2018-09-23T08:01:34.588Z,74.88
2018-09-23T08:02:34.581Z,74.64
2018-09-23T08:03:34.690Z,74.64
2018-09-23T08:04:34.609Z,75.24
2018-09-23T08:05:34.547Z,75.01
2018-09-23T08:06:34.533Z,74.90
2018-09-23T08:07:34.525Z,74.71
2018-09-23T08:08:34.532Z,73.67
2018-09-23T08:09:34.501Z,75.67
2018-09-23T08:10:34.532Z,74.77
2018-09-23T08:11:34.481Z,72.97
2018-09-23T08:12:34.567Z,74.57
2018-09-23T08:13:34.572Z,73.67
2018-09-23T08:14:34.947Z,73.47
2018-09-23T08:15:34.450Z,73.57
2018-09-23T08:16:34.470Z,72.73
2018-09-23T08:17:34.414Z,72.73
2018-09-23T08:18:34.409Z,73.93
2018-09-23T08:19:34.485Z,71.93
2018-09-23T08:20:34.451Z,73.13
2018-09-23T08:21:34.377Z,72.73
2018-09-23T08:22:34.420Z,73.23
2018-09-23T08:23:34.352Z,72.93
2018-09-23T08:24:34.355Z,72.00
2018-09-23T08:25:34.370Z,71.50
2018-09-23T08:26:34.358Z,73.60
2018-09-23T08:27:34.345Z,73.39
2018-09-23T08:28:34.304Z,71.89
2018-09-23T08:29:34.305Z,73.30
2018-09-23T08:30:34.282Z,72.46
2018-09-23T08:31:34.311Z,72.09
2018-09-23T08:32:34.265Z,71.76
2018-09-23T08:33:34.243Z,72.26
2018-09-23T08:34:34.295Z,70.83
2018-09-23T08:35:34.223Z,71.12
2018-09-23T08:36:34.213Z,71.73
2018-09-23T08:37:34.207Z,72.06
2018-09-23T08:38:34.196Z,72.60
2018-09-23T08:39:34.193Z,72.09
2018-09-23T08:40:34.167Z,72.69
2018-09-23T08:41:34.176Z,72.43
2018-09-23T08:42:34.157Z,73.83
2018-09-23T08:43:34.133Z,73.57
2018-09-23T08:44:34.138Z,73.73
2018-09-23T08:45:34.112Z,73.86
2018-09-23T08:46:34.103Z,73.53
2018-09-23T08:47:34.125Z,74.03
2018-09-23T08:48:34.086Z,73.53
2018-09-23T08:49:34.099Z,73.80
2018-09-23T08:50:34.057Z,71.59
2018-09-23T08:51:34.070Z,72.09
2018-09-23T08:52:34.036Z,70.09
2018-09-23T08:53:34.048Z,69.23
2018-09-23T08:54:34.014Z,67.10
2018-09-23T08:55:34.050Z,67.13
2018-09-23T08:56:33.994Z,65.34
2018-09-23T08:57:33.991Z,63.13
2018-09-23T08:58:33.970Z,62.56
2018-09-23T08:59:33.982Z,63.42
2018-09-23T09:00:33.968Z,65.20
2018-09-23T09:01:33.941Z,67.16
2018-09-23T09:02:33.932Z,67.90
2018-09-23T09:03:33.980Z,69.62
2018-09-23T09:04:33.910Z,67.96
2018-09-23T09:05:33.939Z,66.27
2018-09-23T09:06:33.885Z,67.13
2018-09-23T09:07:33.897Z,64.01
2018-09-23T09:08:33.863Z,63.59
2018-09-23T09:09:33.855Z,63.79
2018-09-23T09:10:33.880Z,64.45
2018-09-23T09:11:33.880Z,64.48
2018-09-23T09:12:33.821Z,67.53
2018-09-23T09:13:33.842Z,68.10
2018-09-23T09:14:33.802Z,68.82
2018-09-23T09:15:33.804Z,70.76
2018-09-23T09:16:33.778Z,71.36
2018-09-23T09:17:33.781Z,70.92
2018-09-23T09:18:33.857Z,71.53
2018-09-23T09:19:33.746Z,71.83
2018-09-23T09:20:33.751Z,73.66
2018-09-23T09:21:33.724Z,72.06
2018-09-23T09:22:33.716Z,72.50
2018-09-23T09:23:33.716Z,73.60
2018-09-23T09:24:33.691Z,74.10
2018-09-23T09:25:33.694Z,73.39
2018-09-23T09:26:33.770Z,73.50
2018-09-23T09:27:33.660Z,74.10
2018-09-23T09:28:33.652Z,73.90
2018-09-23T09:29:33.661Z,73.60
2018-09-23T09:30:33.640Z,73.50
2018-09-23T09:31:33.619Z,74.10
2018-09-23T09:32:33.607Z,73.76
2018-09-23T09:33:33.598Z,73.06
2018-09-23T09:34:33.587Z,73.16
2018-09-23T09:35:33.614Z,74.06
2018-09-23T09:36:33.569Z,73.46
2018-09-23T09:37:33.559Z,73.66
2018-09-23T09:38:33.564Z,73.46
2018-09-23T09:39:33.536Z,73.06
2018-09-23T09:40:33.538Z,73.43
2018-09-23T09:41:33.745Z,72.13
2018-09-23T09:42:33.504Z,73.43
2018-09-23T09:43:33.491Z,72.79
2018-09-23T09:44:33.486Z,72.19
2018-09-23T09:45:33.488Z,71.89
2018-09-23T09:46:33.472Z,71.19
2018-09-23T09:47:33.465Z,70.72
2018-09-23T09:48:33.437Z,72.02
2018-09-23T09:49:33.436Z,71.59
2018-09-23T09:50:33.440Z,69.69
2018-09-23T09:51:33.405Z,69.69
2018-09-23T09:52:33.407Z,70.56
2018-09-23T09:53:33.471Z,68.76
2018-09-23T09:54:33.377Z,69.20
2018-09-23T09:55:33.363Z,70.62
2018-09-23T09:56:33.364Z,71.36
2018-09-23T09:57:33.340Z,71.09
2018-09-23T09:58:33.329Z,71.99
2018-09-23T09:59:33.343Z,71.89
2018-09-23T10:00:33.308Z,72.03
2018-09-23T10:01:33.312Z,71.69
2018-09-23T10:02:33.287Z,71.26
2018-09-23T10:03:33.275Z,72.66
2018-09-23T10:04:33.265Z,71.46
2018-09-23T10:05:33.285Z,71.22
2018-09-23T10:06:33.257Z,70.83
2018-09-23T10:07:33.234Z,71.79
2018-09-23T10:08:33.221Z,71.09
2018-09-23T10:09:33.210Z,70.49
2018-09-23T10:10:33.199Z,71.33
2018-09-23T10:11:33.249Z,72.02
2018-09-23T10:12:33.189Z,70.83
2018-09-23T10:13:33.172Z,71.83
2018-09-23T10:14:33.157Z,70.83
2018-09-23T10:15:33.146Z,70.42
2018-09-23T10:16:33.154Z,71.62
2018-09-23T10:17:33.160Z,71.69
2018-09-23T10:18:33.117Z,70.59
2018-09-23T10:19:33.108Z,70.32
2018-09-23T10:20:33.097Z,71.29
2018-09-23T10:21:33.096Z,70.79
2018-09-23T10:22:33.135Z,70.59
2018-09-23T10:23:33.220Z,69.69
2018-09-23T10:24:33.052Z,71.49
2018-09-23T10:25:33.040Z,70.69
2018-09-23T10:26:33.043Z,70.09
2018-09-23T10:27:33.018Z,71.59
2018-09-23T10:28:33.058Z,70.83
2018-09-23T10:29:33.022Z,71.22
2018-09-23T10:30:32.987Z,71.72
2018-09-23T10:31:33.043Z,71.72
2018-09-23T10:32:32.966Z,72.92
2018-09-23T10:33:32.958Z,71.29
2018-09-23T10:34:32.948Z,70.99
2018-09-23T10:35:32.968Z,71.15
2018-09-23T10:36:32.955Z,70.76
2018-09-23T10:37:32.911Z,70.86
2018-09-23T10:38:32.899Z,71.15
2018-09-23T10:39:32.892Z,71.36
2018-09-23T10:40:32.879Z,72.05
2018-09-23T10:41:33.005Z,73.85
2018-09-23T10:42:32.857Z,71.06
2018-09-23T10:43:32.845Z,70.06
2018-09-23T10:44:32.871Z,70.12
2018-09-23T10:45:32.828Z,69.59
2018-09-23T10:46:32.841Z,70.42
2018-09-23T10:47:32.902Z,71.12
2018-09-23T10:48:32.793Z,70.53
2018-09-23T10:49:32.782Z,71.62
2018-09-23T10:50:32.771Z,71.72
2018-09-23T10:51:32.768Z,72.49
2018-09-23T10:52:32.762Z,70.79
2018-09-23T10:53:32.777Z,70.03
2018-09-23T10:54:32.731Z,68.83
2018-09-23T10:55:32.770Z,69.89
2018-09-23T10:56:32.708Z,69.69
2018-09-23T10:57:32.713Z,68.66
2018-09-23T10:58:32.703Z,68.60
2018-09-23T10:59:32.773Z,68.60
2018-09-23T11:00:32.666Z,68.86
2018-09-23T11:01:32.653Z,68.66
2018-09-23T11:02:32.658Z,67.83
2018-09-23T11:03:32.644Z,67.93
2018-09-23T11:04:32.628Z,68.04
2018-09-23T11:05:32.627Z,67.77
2018-09-23T11:06:32.600Z,66.84
2018-09-23T11:07:32.658Z,66.27
2018-09-23T11:08:32.581Z,66.74
2018-09-23T11:09:32.572Z,67.30
2018-09-23T11:10:32.558Z,66.24
2018-09-23T11:11:32.573Z,66.54
2018-09-23T11:12:32.555Z,66.67
2018-09-23T11:13:32.527Z,68.56
2018-09-23T11:14:32.514Z,67.33
2018-09-23T11:15:32.508Z,64.83
2018-09-23T11:16:32.496Z,64.67
2018-09-23T11:17:32.529Z,63.64
2018-09-23T11:18:32.472Z,63.31
2018-09-23T11:19:32.462Z,60.48
2018-09-23T11:20:32.451Z,60.28
2018-09-23T11:21:32.443Z,61.69
2018-09-23T11:22:32.442Z,61.10
2018-09-23T11:23:32.488Z,59.66
2018-09-23T11:24:32.418Z,59.99
2018-09-23T11:25:32.396Z,60.94
2018-09-23T11:26:32.386Z,63.37
2018-09-23T11:27:32.390Z,62.91
2018-09-23T11:28:32.386Z,62.95
2018-09-23T11:29:32.354Z,63.18
2018-09-23T11:30:32.359Z,64.47
2018-09-23T11:31:32.333Z,62.05
2018-09-23T11:32:32.344Z,61.56
2018-09-23T11:33:32.314Z,62.52
2018-09-23T11:34:32.364Z,62.32
2018-09-23T11:35:32.290Z,59.92
2018-09-23T11:36:32.285Z,61.40
2018-09-23T11:37:32.287Z,60.91
2018-09-23T11:38:32.258Z,62.88
2018-09-23T11:39:32.249Z,61.21
2018-09-23T11:40:32.286Z,61.46
2018-09-23T11:41:32.227Z,62.88
2018-09-23T11:42:32.234Z,62.72
2018-09-23T11:43:32.205Z,62.46
2018-09-23T11:44:32.195Z,61.83
2018-09-23T11:45:32.185Z,60.45
2018-09-23T11:46:32.192Z,61.44
2018-09-23T11:47:32.178Z,62.62
2018-09-23T11:48:32.153Z,62.75
2018-09-23T11:49:32.141Z,62.75
2018-09-23T11:50:32.134Z,62.68
2018-09-23T11:51:32.121Z,64.79
2018-09-23T11:52:32.145Z,64.89
2018-09-23T11:53:32.102Z,65.06
2018-09-23T11:54:32.089Z,63.77
2018-09-23T11:55:32.081Z,64.99
2018-09-23T11:56:32.068Z,64.40
2018-09-23T11:57:32.088Z,63.90
2018-09-23T11:58:32.071Z,63.31
2018-09-23T11:59:32.038Z,64.11
2018-09-23T12:00:32.028Z,62.19
2018-09-23T12:01:32.025Z,60.97
2018-09-23T12:02:32.049Z,63.19
2018-09-23T12:03:32.026Z,60.03
2018-09-23T12:04:32.120Z,60.00
2018-09-23T12:05:32.108Z,58.94
2018-09-23T12:06:31.961Z,60.16
2018-09-23T12:07:31.950Z,61.44
2018-09-23T12:08:31.976Z,61.44
2018-09-23T12:09:31.932Z,60.16
2018-09-23T12:10:31.928Z,61.05
2018-09-23T12:11:31.923Z,61.58
2018-09-23T12:12:31.898Z,61.44
2018-09-23T12:13:31.901Z,60.55
2018-09-23T12:14:31.878Z,60.51
2018-09-23T12:15:31.871Z,64.50
2018-09-23T12:16:31.854Z,62.29
2018-09-23T12:17:31.866Z,62.99
2018-09-23T12:18:31.850Z,63.39
2018-09-23T12:19:31.825Z,62.99
2018-09-23T12:20:31.818Z,62.75
2018-09-23T12:21:31.807Z,63.31
2018-09-23T12:22:31.793Z,64.83
2018-09-23T12:23:31.825Z,65.25
2018-09-23T12:24:31.772Z,66.44
2018-09-23T12:25:31.832Z,64.89
2018-09-23T12:26:31.756Z,67.37
2018-09-23T12:27:31.742Z,68.57
2018-09-23T12:28:31.745Z,67.87
2018-09-23T12:29:31.743Z,66.94
2018-09-23T12:30:31.725Z,66.78
2018-09-23T12:31:31.699Z,67.77
2018-09-23T12:32:31.693Z,66.88
2018-09-23T12:33:31.703Z,68.63
2018-09-23T12:34:31.668Z,66.44
2018-09-23T12:35:31.658Z,68.57
2018-09-23T12:36:31.671Z,67.37
2018-09-23T12:37:31.635Z,66.91
2018-09-23T12:38:31.624Z,68.43
2018-09-23T12:39:31.661Z,67.70
2018-09-23T12:40:31.603Z,67.60
2018-09-23T12:41:31.593Z,67.67
2018-09-23T12:42:31.619Z,67.87
2018-09-23T12:43:31.572Z,65.52
2018-09-23T12:44:31.605Z,67.30
2018-09-23T12:45:31.552Z,66.94
2018-09-23T12:46:31.543Z,67.04
2018-09-23T12:47:31.530Z,67.14
2018-09-23T12:48:31.554Z,67.63
2018-09-23T12:49:31.524Z,67.57
2018-09-23T12:50:31.501Z,68.16
2018-09-23T12:51:31.486Z,68.37
2018-09-23T12:52:31.479Z,68.50